createdAt,value
2022-12-14T00:01:21.439Z,14.40
2022-12-14T00:03:48.770Z,14.15
2022-12-14T00:06:17.186Z,14.10
2022-12-14T00:08:44.351Z,14.85
2022-12-14T00:11:11.259Z,15.57
2022-12-14T00:13:38.502Z,15.75
2022-12-14T00:16:07.431Z,15.35
2022-12-14T00:18:33.995Z,15.93
2022-12-14T00:21:05.523Z,14.35
2022-12-14T00:23:37.098Z,13.05
2022-12-14T00:26:10.668Z,14.35
2022-12-14T00:28:37.723Z,14.35
2022-12-14T00:31:04.785Z,14.35
2022-12-14T00:33:31.869Z,14.40
2022-12-14T00:35:58.822Z,14.60
2022-12-14T00:38:25.940Z,14.75
2022-12-14T00:40:53.568Z,15.32
2022-12-14T00:43:21.704Z,14.75
2022-12-14T00:45:48.358Z,15.02
2022-12-14T00:48:14.949Z,14.85
2022-12-14T00:50:41.461Z,14.23
2022-12-14T00:53:14.790Z,15.27
2022-12-14T00:55:43.556Z,14.35
2022-12-14T00:58:11.929Z,13.98
2022-12-14T01:00:38.872Z,14.32
2022-12-14T01:03:05.934Z,14.15
2022-12-14T01:05:35.037Z,14.18
2022-12-14T01:08:01.825Z,14.07
2022-12-14T01:10:28.964Z,13.05
2022-12-14T01:12:55.281Z,13.52
2022-12-14T01:15:21.897Z,13.52
2022-12-14T01:17:48.292Z,13.35
2022-12-14T01:20:14.692Z,13.82
2022-12-14T01:22:41.166Z,12.18
2022-12-14T01:25:08.044Z,12.82
2022-12-14T01:27:34.511Z,13.02
2022-12-14T01:30:04.203Z,12.20
2022-12-14T01:32:30.963Z,12.57
2022-12-14T01:34:57.450Z,11.68
2022-12-14T01:37:24.045Z,12.45
2022-12-14T01:39:50.574Z,11.65
2022-12-14T01:42:17.186Z,11.45
2022-12-14T01:44:43.443Z,11.52
2022-12-14T01:47:24.407Z,11.35
2022-12-14T01:50:05.355Z,11.13
2022-12-14T01:52:48.686Z,11.00
2022-12-14T01:55:48.988Z,10.85
2022-12-14T01:58:19.906Z,11.15
2022-12-14T02:00:47.946Z,11.55
2022-12-14T02:03:25.967Z,11.75
2022-12-14T02:05:58.202Z,10.93
2022-12-14T02:08:25.659Z,11.13
2022-12-14T02:10:54.572Z,11.43
2022-12-14T02:13:26.911Z,11.02
2022-12-14T02:15:53.716Z,10.45
2022-12-14T02:18:28.636Z,10.82
2022-12-14T02:21:14.584Z,10.32
2022-12-14T02:24:07.728Z,10.60
2022-12-14T02:26:49.480Z,9.07
2022-12-14T02:29:37.327Z,9.95
2022-12-14T02:32:32.247Z,10.40
2022-12-14T02:35:15.290Z,10.85
2022-12-14T02:38:03.143Z,10.70
2022-12-14T02:41:08.458Z,10.68
2022-12-14T02:43:54.108Z,9.05
2022-12-14T02:46:31.467Z,10.93
2022-12-14T02:49:27.195Z,10.15
2022-12-14T02:52:15.495Z,9.88
2022-12-14T02:54:53.087Z,10.05
2022-12-14T02:57:32.078Z,10.77
2022-12-14T03:00:01.973Z,10.88
2022-12-14T03:02:30.936Z,10.13
2022-12-14T03:04:58.936Z,10.27
2022-12-14T03:07:34.221Z,7.90
2022-12-14T03:10:09.087Z,10.73
2022-12-14T03:12:40.181Z,10.65
2022-12-14T03:15:11.565Z,10.45
2022-12-14T03:17:39.934Z,11.30
2022-12-14T03:22:48.091Z,9.93
2022-12-14T03:25:21.304Z,10.52
2022-12-14T03:28:05.935Z,10.00
2022-12-14T03:30:58.971Z,10.57
2022-12-14T03:33:25.573Z,10.35
2022-12-14T03:36:06.547Z,9.48
2022-12-14T03:38:43.827Z,9.82
2022-12-14T03:41:35.230Z,10.10
2022-12-14T03:44:11.481Z,10.73
2022-12-14T03:47:26.059Z,10.13
2022-12-14T03:50:09.135Z,10.25
2022-12-14T03:53:01.198Z,9.57
2022-12-14T03:55:40.187Z,10.35
2022-12-14T03:58:21.771Z,11.05
2022-12-14T04:01:06.356Z,10.63
2022-12-14T04:03:50.401Z,10.00
2022-12-14T04:06:38.085Z,10.43
2022-12-14T04:09:33.347Z,10.98
2022-12-14T04:12:26.538Z,10.40
2022-12-14T04:15:17.065Z,10.85
2022-12-14T04:18:05.402Z,11.98
2022-12-14T04:20:40.729Z,9.77
2022-12-14T04:23:14.393Z,10.65
2022-12-14T04:26:04.902Z,10.23
2022-12-14T04:28:58.722Z,9.50
2022-12-14T04:31:30.796Z,10.30
2022-12-14T04:33:59.606Z,10.65
2022-12-14T04:36:31.891Z,9.95
2022-12-14T04:39:07.046Z,11.05
2022-12-14T04:41:38.717Z,9.90
2022-12-14T04:44:15.747Z,9.48
2022-12-14T04:46:44.048Z,9.32
2022-12-14T04:49:36.884Z,9.80
2022-12-14T04:52:20.542Z,9.20
2022-12-14T04:54:59.610Z,9.63
2022-12-14T04:57:29.622Z,9.20
2022-12-14T04:59:56.461Z,9.90
2022-12-14T05:02:39.063Z,9.75
2022-12-14T05:05:17.618Z,9.32
2022-12-14T05:07:57.433Z,10.02
2022-12-14T05:10:53.750Z,9.52
2022-12-14T05:13:31.910Z,10.18
2022-12-14T05:15:59.461Z,8.90
2022-12-14T05:18:26.097Z,9.85
2022-12-14T05:20:52.667Z,10.25
2022-12-14T05:23:19.208Z,9.32
2022-12-14T05:25:45.732Z,10.27
2022-12-14T05:28:15.529Z,10.35
2022-12-14T05:30:41.960Z,10.60
2022-12-14T05:33:19.590Z,10.05
2022-12-14T05:35:46.114Z,9.48
2022-12-14T05:38:13.316Z,10.00
2022-12-14T05:40:39.930Z,10.45
2022-12-14T05:43:07.631Z,11.05
2022-12-14T05:45:34.153Z,10.00
2022-12-14T05:48:00.714Z,10.48
2022-12-14T05:50:27.206Z,10.10
2022-12-14T05:52:55.537Z,10.88
2022-12-14T05:57:48.381Z,9.82
2022-12-14T06:00:15.402Z,9.82
2022-12-14T06:02:41.777Z,9.95
2022-12-14T06:05:08.591Z,9.18
2022-12-14T06:07:35.102Z,10.88
2022-12-14T06:10:01.444Z,9.52
2022-12-14T06:12:27.836Z,10.00
2022-12-14T06:14:54.279Z,10.07
2022-12-14T06:17:20.640Z,9.32
2022-12-14T06:19:49.904Z,10.13
2022-12-14T06:22:17.322Z,10.00
2022-12-14T06:24:43.683Z,9.50
2022-12-14T06:27:10.049Z,11.13
2022-12-14T06:29:36.390Z,10.35
2022-12-14T06:32:02.749Z,10.43
2022-12-14T06:34:29.113Z,10.45
2022-12-14T06:36:55.461Z,11.25
2022-12-14T06:39:21.834Z,9.80
2022-12-14T06:41:51.751Z,9.93
2022-12-14T06:44:18.291Z,8.98
2022-12-14T06:46:45.030Z,11.02
2022-12-14T06:49:14.830Z,11.10
2022-12-14T06:51:42.037Z,10.43
2022-12-14T06:54:10.697Z,11.48
2022-12-14T06:56:38.266Z,10.38
2022-12-14T06:59:05.380Z,10.27
2022-12-14T07:01:31.895Z,10.70
2022-12-14T07:03:59.639Z,10.20
2022-12-14T07:06:28.515Z,10.20
2022-12-14T07:08:57.004Z,10.55
2022-12-14T07:11:24.646Z,10.15
2022-12-14T07:13:51.194Z,10.80
2022-12-14T07:16:21.267Z,9.48
2022-12-14T07:18:48.175Z,12.45
2022-12-14T07:21:16.708Z,9.55
2022-12-14T07:23:44.710Z,10.00
2022-12-14T07:26:17.796Z,10.10
2022-12-14T07:28:45.723Z,10.73
2022-12-14T07:31:20.760Z,11.43
2022-12-14T07:33:47.642Z,10.32
2022-12-14T07:36:19.349Z,10.32
2022-12-14T07:38:48.171Z,9.85
2022-12-14T07:41:22.061Z,10.48
2022-12-14T07:43:51.797Z,11.77
2022-12-14T07:46:22.133Z,9.77
2022-12-14T07:48:51.749Z,11.05
2022-12-14T07:51:22.371Z,10.82
2022-12-14T07:53:50.152Z,10.55
2022-12-14T07:56:18.901Z,10.63
2022-12-14T07:58:45.413Z,10.30
2022-12-14T08:01:14.762Z,11.02
2022-12-14T08:03:44.125Z,10.20
2022-12-14T08:06:12.383Z,10.27
2022-12-14T08:08:39.208Z,10.27
2022-12-14T08:11:08.036Z,11.07
2022-12-14T08:13:34.976Z,10.57
2022-12-14T08:16:19.690Z,11.45
2022-12-14T08:18:46.137Z,9.57
2022-12-14T08:21:14.108Z,11.32
2022-12-14T08:23:41.578Z,10.18
2022-12-14T08:26:08.873Z,11.23
2022-12-14T08:28:36.132Z,10.38
2022-12-14T08:31:11.154Z,8.65
2022-12-14T08:33:39.041Z,9.85
2022-12-14T08:36:17.137Z,10.23
2022-12-14T08:38:45.417Z,9.90
2022-12-14T08:41:15.050Z,9.77
2022-12-14T08:43:41.792Z,10.98
2022-12-14T08:46:09.977Z,10.77
2022-12-14T08:48:36.833Z,10.65
2022-12-14T08:51:08.931Z,10.32
2022-12-14T08:53:36.997Z,11.93
2022-12-14T08:56:12.311Z,9.73
2022-12-14T08:58:39.991Z,10.93
2022-12-14T09:01:09.544Z,10.95
2022-12-14T09:03:36.124Z,10.02
2022-12-14T09:06:07.949Z,10.40
2022-12-14T09:08:35.366Z,11.05
2022-12-14T09:11:03.073Z,10.80
2022-12-14T09:13:30.235Z,11.23
2022-12-14T09:16:06.487Z,11.35
2022-12-14T09:18:34.483Z,11.07
2022-12-14T09:21:01.243Z,10.48
2022-12-14T09:23:32.371Z,11.07
2022-12-14T09:26:02.928Z,10.38
2022-12-14T09:28:30.734Z,10.98
2022-12-14T09:30:59.200Z,9.65
2022-12-14T09:33:29.794Z,11.35
2022-12-14T09:36:08.721Z,11.18
2022-12-14T09:38:38.079Z,14.00
2022-12-14T09:41:07.635Z,12.32
2022-12-14T09:43:41.067Z,11.23
2022-12-14T09:46:19.712Z,11.35
2022-12-14T09:48:47.398Z,10.45
2022-12-14T09:51:19.093Z,10.32
2022-12-14T09:53:48.923Z,10.35
2022-12-14T09:56:19.260Z,12.48
2022-12-14T09:58:54.929Z,11.63
2022-12-14T10:01:24.062Z,12.30
2022-12-14T10:04:05.732Z,11.20
2022-12-14T10:06:59.335Z,11.55
2022-12-14T10:09:47.526Z,11.52
2022-12-14T10:12:45.722Z,13.50
2022-12-14T10:15:29.251Z,10.85
2022-12-14T10:18:06.568Z,12.40
2022-12-14T10:20:49.024Z,12.17
2022-12-14T10:23:22.967Z,11.13
2022-12-14T10:25:54.167Z,12.63
2022-12-14T10:28:32.330Z,11.68
2022-12-14T10:31:02.196Z,11.35
2022-12-14T10:33:31.352Z,11.23
2022-12-14T10:36:18.223Z,11.15
2022-12-14T10:38:58.726Z,9.85
2022-12-14T10:41:37.269Z,11.63
2022-12-14T10:44:18.064Z,11.07
2022-12-14T10:46:57.114Z,11.45
2022-12-14T10:49:31.445Z,11.00
2022-12-14T10:52:03.959Z,10.98
2022-12-14T10:54:45.365Z,11.57
2022-12-14T10:57:18.390Z,10.80
2022-12-14T11:00:05.207Z,10.63
2022-12-14T11:02:36.113Z,12.17
2022-12-14T11:05:11.769Z,13.48
2022-12-14T11:07:40.291Z,13.45
2022-12-14T11:10:17.253Z,13.32
2022-12-14T11:12:55.033Z,12.07
2022-12-14T11:15:29.756Z,11.35
2022-12-14T11:18:02.706Z,12.10
2022-12-14T11:20:29.423Z,11.65
2022-12-14T11:22:59.105Z,12.30
2022-12-14T11:25:43.252Z,13.52
2022-12-14T11:28:25.716Z,13.30
2022-12-14T11:31:01.308Z,14.32
2022-12-14T11:33:49.764Z,13.63
2022-12-14T11:36:24.136Z,12.70
2022-12-14T11:39:02.967Z,14.02
2022-12-14T11:41:34.241Z,13.65
2022-12-14T11:44:16.462Z,13.90
2022-12-14T11:46:59.147Z,12.90
2022-12-14T11:49:37.646Z,14.15
2022-12-14T11:52:23.420Z,19.73
2022-12-14T11:54:52.707Z,21.42
2022-12-14T11:57:46.629Z,16.33
2022-12-14T12:00:55.555Z,15.15
2022-12-14T12:03:27.079Z,14.10
2022-12-14T12:05:54.828Z,14.80
2022-12-14T12:08:27.382Z,12.60
2022-12-14T12:11:01.912Z,14.73
2022-12-14T12:13:32.352Z,14.63
2022-12-14T12:16:15.774Z,14.70
2022-12-14T12:18:56.456Z,15.60
2022-12-14T12:21:32.160Z,19.42
2022-12-14T12:24:01.833Z,14.85
2022-12-14T12:27:11.946Z,15.57
2022-12-14T12:29:46.623Z,15.00
2022-12-14T12:32:23.443Z,15.35
2022-12-14T12:35:24.092Z,16.50
2022-12-14T12:37:58.709Z,15.32
2022-12-14T12:40:33.000Z,16.33
2022-12-14T12:43:07.325Z,15.30
2022-12-14T12:45:42.943Z,17.30
2022-12-14T12:48:20.930Z,18.63
2022-12-14T12:50:51.228Z,17.83
2022-12-14T12:53:41.329Z,17.05
2022-12-14T12:56:17.030Z,17.77
2022-12-14T12:58:52.149Z,16.00
2022-12-14T13:01:39.305Z,15.32
2022-12-14T13:04:11.475Z,16.38
2022-12-14T13:06:48.675Z,14.50
2022-12-14T13:09:27.259Z,15.52
2022-12-14T13:11:54.757Z,15.48
2022-12-14T13:14:43.192Z,13.63
2022-12-14T13:17:30.486Z,14.95
2022-12-14T13:19:59.025Z,14.90
2022-12-14T13:22:32.598Z,14.48
2022-12-14T13:25:07.785Z,16.45
2022-12-14T13:27:45.300Z,15.32
2022-12-14T13:30:11.788Z,17.52
2022-12-14T13:32:54.490Z,15.23
2022-12-14T13:35:51.424Z,14.93
2022-12-14T13:38:36.264Z,18.20
2022-12-14T13:41:29.628Z,16.08
2022-12-14T13:44:11.120Z,16.70
2022-12-14T13:46:39.272Z,16.02
2022-12-14T13:49:08.963Z,15.88
2022-12-14T13:51:40.463Z,14.85
2022-12-14T13:54:18.753Z,14.82
2022-12-14T13:59:25.911Z,13.18
2022-12-14T14:01:55.640Z,12.30
2022-12-14T14:04:30.380Z,13.90
2022-12-14T14:07:22.542Z,12.95
2022-12-14T14:09:54.917Z,12.98
2022-12-14T14:12:35.489Z,12.77
2022-12-14T14:15:24.199Z,12.90
2022-12-14T14:17:53.266Z,15.10
2022-12-14T14:20:38.161Z,13.88
2022-12-14T14:23:29.143Z,14.35
2022-12-14T14:26:23.273Z,14.20
2022-12-14T14:29:05.114Z,14.63
2022-12-14T14:31:47.697Z,14.45
2022-12-14T14:34:23.783Z,14.32
2022-12-14T14:36:50.988Z,14.98
2022-12-14T14:42:24.235Z,14.43
2022-12-14T14:44:58.149Z,13.75
2022-12-14T14:47:35.748Z,17.02
2022-12-14T14:50:08.281Z,14.07
2022-12-14T14:52:37.573Z,16.27
2022-12-14T14:55:52.132Z,16.10
2022-12-14T14:58:23.531Z,14.95
2022-12-14T15:01:01.693Z,15.48
2022-12-14T15:06:01.488Z,15.15
2022-12-14T15:08:43.325Z,14.43
2022-12-14T15:11:19.699Z,14.93
2022-12-14T15:13:53.159Z,15.05
2022-12-14T15:16:27.823Z,15.07
2022-12-14T15:18:54.833Z,17.15
2022-12-14T15:21:21.311Z,16.67
2022-12-14T15:23:53.759Z,16.88
2022-12-14T15:26:27.728Z,16.67
2022-12-14T15:28:58.377Z,16.67
2022-12-14T15:31:58.912Z,16.27
2022-12-14T15:34:26.445Z,15.93
2022-12-14T15:36:53.547Z,13.82
2022-12-14T15:39:39.744Z,15.27
2022-12-14T15:42:11.892Z,16.20
2022-12-14T15:44:43.682Z,16.55
2022-12-14T15:47:22.126Z,15.85
2022-12-14T15:49:48.477Z,16.88
2022-12-14T15:52:16.796Z,18.63
2022-12-14T15:57:17.618Z,18.10
2022-12-14T15:59:46.228Z,18.70
2022-12-14T16:02:25.946Z,20.17
2022-12-14T16:04:53.219Z,21.20
2022-12-14T16:07:30.277Z,19.27
2022-12-14T16:10:01.405Z,19.05
2022-12-14T16:12:54.019Z,18.67
2022-12-14T16:15:24.054Z,18.08
2022-12-14T16:17:57.462Z,18.80
2022-12-14T16:20:32.999Z,18.42
2022-12-14T16:23:13.287Z,19.40
2022-12-14T16:25:50.546Z,19.10
2022-12-14T16:28:33.265Z,15.32
2022-12-14T16:31:11.854Z,16.95
2022-12-14T16:33:40.658Z,19.50
2022-12-14T16:36:13.373Z,18.10
2022-12-14T16:39:00.378Z,18.30
2022-12-14T16:41:39.974Z,18.67
2022-12-14T16:44:21.968Z,22.00
2022-12-14T16:47:00.430Z,19.77
2022-12-14T16:49:40.889Z,21.10
2022-12-14T16:52:10.210Z,24.77
2022-12-14T16:54:38.273Z,25.70
2022-12-14T16:57:17.596Z,25.58
2022-12-14T16:59:46.088Z,22.52
2022-12-14T17:02:28.202Z,20.75
2022-12-14T17:04:55.790Z,21.67
2022-12-14T17:07:25.484Z,21.35
2022-12-14T17:09:51.867Z,20.05
2022-12-14T17:12:18.960Z,19.23
2022-12-14T17:14:49.685Z,20.77
2022-12-14T17:17:25.444Z,24.08
2022-12-14T17:19:51.948Z,23.25
2022-12-14T17:22:24.751Z,19.10
2022-12-14T17:24:51.380Z,23.15
2022-12-14T17:27:22.010Z,24.88
2022-12-14T17:29:49.527Z,24.50
2022-12-14T17:32:17.437Z,23.90
2022-12-14T17:34:45.574Z,25.13
2022-12-14T17:37:17.375Z,23.63
2022-12-14T17:39:50.396Z,23.88
2022-12-14T17:42:20.375Z,23.27
2022-12-14T17:44:54.150Z,23.00
2022-12-14T17:47:20.555Z,25.38
2022-12-14T17:49:55.779Z,25.08
2022-12-14T17:52:35.596Z,25.40
2022-12-14T17:55:02.061Z,26.27
2022-12-14T17:57:29.163Z,25.83
2022-12-14T18:00:14.225Z,24.92
2022-12-14T18:02:43.495Z,21.83
2022-12-14T18:07:46.503Z,21.23
2022-12-14T18:10:18.527Z,27.85
2022-12-14T18:12:45.234Z,27.35
2022-12-14T18:15:20.992Z,27.50
2022-12-14T18:17:49.445Z,30.85
2022-12-14T18:20:16.162Z,32.33
2022-12-14T18:22:42.744Z,32.63
2022-12-14T18:25:25.030Z,32.38
2022-12-14T18:27:51.755Z,32.30
2022-12-14T18:30:18.487Z,29.60
2022-12-14T18:32:45.146Z,32.55
2022-12-14T18:35:21.974Z,34.08
2022-12-14T18:37:49.598Z,38.15
2022-12-14T18:40:18.646Z,37.13
2022-12-14T18:42:45.415Z,37.38
2022-12-14T18:45:23.572Z,37.53
2022-12-14T18:47:50.988Z,30.70
2022-12-14T18:50:19.103Z,26.10
2022-12-14T18:52:46.716Z,31.83
2022-12-14T18:55:20.485Z,35.83
2022-12-14T18:57:48.650Z,38.65
2022-12-14T19:00:17.851Z,57.00
2022-12-14T19:02:46.887Z,56.13
2022-12-14T19:05:25.638Z,53.72
2022-12-14T19:07:52.882Z,51.63
2022-12-14T19:10:22.359Z,41.20
2022-12-14T19:12:50.379Z,47.75
2022-12-14T19:15:23.570Z,41.25
2022-12-14T19:17:50.265Z,41.33
2022-12-14T19:20:17.541Z,39.05
2022-12-14T19:22:44.834Z,36.78
2022-12-14T19:25:12.784Z,46.65
2022-12-14T19:28:25.744Z,49.53
2022-12-14T19:30:30.210Z,45.97
2022-12-14T19:32:58.427Z,46.42
2022-12-14T19:35:24.901Z,43.88
2022-12-14T19:37:51.918Z,37.50
2022-12-14T19:40:19.200Z,37.30
2022-12-14T19:42:48.626Z,32.25
2022-12-14T19:45:16.521Z,35.65
2022-12-14T19:47:44.171Z,33.20
2022-12-14T19:50:12.702Z,36.42
2022-12-14T19:52:39.299Z,33.45
2022-12-14T19:55:07.005Z,32.13
2022-12-14T19:57:33.546Z,30.67
2022-12-14T20:00:00.106Z,31.55
2022-12-14T20:02:29.822Z,36.28
2022-12-14T20:04:56.358Z,35.75
2022-12-14T20:07:22.743Z,35.42
2022-12-14T20:09:49.339Z,32.88
2022-12-14T20:12:15.755Z,31.80
2022-12-14T20:14:42.863Z,32.33
2022-12-14T20:17:11.135Z,30.58
2022-12-14T20:22:06.065Z,26.67
2022-12-14T20:24:32.605Z,29.83
2022-12-14T20:27:01.594Z,28.30
2022-12-14T20:29:28.893Z,30.48
2022-12-14T20:31:55.495Z,29.55
2022-12-14T20:34:23.173Z,32.17
2022-12-14T20:36:49.639Z,22.23
2022-12-14T20:39:16.399Z,31.67
2022-12-14T20:41:42.743Z,32.03
2022-12-14T20:44:12.559Z,30.60
2022-12-14T20:46:45.200Z,32.20
2022-12-14T20:49:19.164Z,31.08
2022-12-14T20:51:47.568Z,31.73
2022-12-14T20:54:16.024Z,32.17
2022-12-14T20:56:43.386Z,31.95
2022-12-14T20:59:10.766Z,30.67
2022-12-14T21:01:39.064Z,30.80
2022-12-14T21:04:07.671Z,29.67
2022-12-14T21:06:41.980Z,29.30
2022-12-14T21:09:10.066Z,31.83
2022-12-14T21:12:05.292Z,32.13
2022-12-14T21:14:37.751Z,30.02
2022-12-14T21:17:05.285Z,27.92
2022-12-14T21:19:32.549Z,30.25
2022-12-14T21:21:59.011Z,31.50
2022-12-14T21:25:00.448Z,29.58
2022-12-14T21:27:21.754Z,29.25
2022-12-14T21:29:48.685Z,28.77
2022-12-14T21:32:16.625Z,31.63
2022-12-14T21:34:43.111Z,30.40
2022-12-14T21:37:10.170Z,30.80
2022-12-14T21:39:36.741Z,30.15
2022-12-14T21:42:13.802Z,30.42
2022-12-14T21:44:44.740Z,29.83
2022-12-14T21:47:13.981Z,30.27
2022-12-14T21:49:43.013Z,29.27
2022-12-14T21:52:12.460Z,28.00
2022-12-14T21:54:39.546Z,26.70
2022-12-14T21:57:24.528Z,27.08
2022-12-14T21:59:50.900Z,22.85
2022-12-14T22:02:22.934Z,23.85
2022-12-14T22:04:49.762Z,23.88
2022-12-14T22:07:17.883Z,22.88
2022-12-14T22:09:45.115Z,23.30
2022-12-14T22:12:17.464Z,22.63
2022-12-14T22:14:45.117Z,19.52
2022-12-14T22:17:14.475Z,24.10
2022-12-14T22:19:40.788Z,23.30
2022-12-14T22:22:12.060Z,22.85
2022-12-14T22:24:38.561Z,23.65
2022-12-14T22:27:05.099Z,25.10
2022-12-14T22:29:32.011Z,24.65
2022-12-14T22:31:58.421Z,25.13
2022-12-14T22:34:24.850Z,24.98
2022-12-14T22:36:52.458Z,26.15
2022-12-14T22:39:19.526Z,26.10
2022-12-14T22:41:46.346Z,25.13
2022-12-14T22:44:13.183Z,23.75
2022-12-14T22:46:40.507Z,25.05
2022-12-14T22:49:08.716Z,24.87
2022-12-14T22:54:01.779Z,23.33
2022-12-14T22:56:35.898Z,24.58
2022-12-14T22:59:32.893Z,25.02
2022-12-14T23:01:59.730Z,24.70
2022-12-14T23:04:26.574Z,23.65
2022-12-14T23:06:54.097Z,24.15
2022-12-14T23:09:39.151Z,24.00
2022-12-14T23:12:24.769Z,23.88
2022-12-14T23:15:09.811Z,22.38
2022-12-14T23:17:55.059Z,22.00
2022-12-14T23:20:40.226Z,22.05
2022-12-14T23:23:27.246Z,22.10
2022-12-14T23:26:12.307Z,20.67
2022-12-14T23:28:57.542Z,20.70
2022-12-14T23:31:42.506Z,22.08
2022-12-14T23:34:27.159Z,23.15
2022-12-14T23:37:15.083Z,22.83
2022-12-14T23:40:05.681Z,23.00
2022-12-14T23:42:50.906Z,23.33
2022-12-14T23:45:35.936Z,22.42
2022-12-14T23:48:20.811Z,23.83
2022-12-14T23:51:05.516Z,21.35
2022-12-14T23:53:50.632Z,22.42
2022-12-14T23:56:35.768Z,21.65
2022-12-14T23:59:22.687Z,23.10
